Time;durP1;ratioP1;P1;durP2;ratioP2;P2;SDS_P1;SDS_P2;PMS_P1;PMS_P2;Temp;Humidity;BMP_temperature;BMP_pressure;BME280_temperature;BME280_humidity;BME280_pressure;Samples;Min_cycle;Max_cycle;Signal;HPM_P1;HPM_P2
2023/05/02 00:02:10;;;;;;;16.27;7.75;;;;;;;20.94;44.81;100301.63;5115607;28;20056;-67
2023/05/02 00:04:39;;;;;;;16.90;8.35;;;;;;;20.93;44.58;100299.88;5115488;28;20096;-67
2023/05/02 00:07:08;;;;;;;18.40;7.82;;;;;;;20.92;44.75;100305.47;5115348;28;20048;-67
2023/05/02 00:09:36;;;;;;;17.27;8.50;;;;;;;20.90;44.60;100308.34;5115597;28;20089;-69
2023/05/02 00:12:05;;;;;;;17.30;8.20;;;;;;;20.90;44.84;100305.63;5115505;28;20048;-69
2023/05/02 00:14:33;;;;;;;15.55;8.48;;;;;;;20.89;44.51;100303.06;5115454;28;20126;-68
2023/05/02 00:17:01;;;;;;;17.05;8.32;;;;;;;20.88;44.75;100304.94;5115406;28;20131;-68
2023/05/02 00:19:30;;;;;;;16.58;7.90;;;;;;;20.86;44.95;100306.97;5115204;28;20044;-68
2023/05/02 00:21:58;;;;;;;13.88;7.70;;;;;;;20.85;45.00;100305.25;5115348;28;20047;-67
2023/05/02 00:24:27;;;;;;;16.92;7.82;;;;;;;20.85;44.77;100310.69;5115217;28;20057;-67
2023/05/02 00:26:55;;;;;;;12.93;7.30;;;;;;;20.83;44.95;100310.81;5115170;28;20134;-66
2023/05/02 00:29:23;;;;;;;15.60;7.78;;;;;;;20.82;44.61;100310.97;5115082;28;20119;-70
2023/05/02 00:31:52;;;;;;;15.50;7.90;;;;;;;20.80;45.34;100304.88;5115098;28;20050;-69
2023/05/02 00:34:20;;;;;;;15.43;7.32;;;;;;;20.80;44.85;100302.16;5115290;28;20040;-69
2023/05/02 00:36:48;;;;;;;17.73;7.43;;;;;;;20.79;44.83;100305.88;5114839;28;20437;-69
2023/05/02 00:39:16;;;;;;;14.73;7.07;;;;;;;20.77;44.95;100307.91;5115085;27;20054;-69
2023/05/02 00:41:46;;;;;;;14.70;7.45;;;;;;;20.75;44.72;100299.06;5114676;28;20043;-69
2023/05/02 00:44:14;;;;;;;15.05;6.90;;;;;;;20.74;44.59;100300.91;5114767;28;20125;-68
2023/05/02 00:46:42;;;;;;;13.98;6.70;;;;;;;20.73;44.78;100303.78;5114459;28;20048;-66
2023/05/02 00:49:11;;;;;;;14.38;7.40;;;;;;;20.73;44.93;100301.06;5113831;28;20044;-68
2023/05/02 00:51:40;;;;;;;14.93;6.93;;;;;;;20.70;44.76;100307.66;5114688;28;20473;-67
2023/05/02 00:54:08;;;;;;;14.65;7.20;;;;;;;20.70;44.77;100312.25;5114639;28;20044;-67
2023/05/02 00:56:36;;;;;;;14.45;6.95;;;;;;;20.69;44.88;100315.97;5114575;28;20217;-68
2023/05/02 00:59:08;;;;;;;13.18;6.30;;;;;;;20.69;44.72;100310.53;5114401;28;20044;-67
2023/05/02 01:01:43;;;;;;;12.98;6.63;;;;;;;20.67;44.46;100312.56;5114500;28;20496;-67
2023/05/02 01:04:23;;;;;;;11.80;6.45;;;;;;;20.66;44.31;100311.72;5114311;28;20126;-68
2023/05/02 01:07:06;;;;;;;14.25;6.70;;;;;;;20.65;44.72;100314.53;5114231;28;20506;-68
2023/05/02 01:09:42;;;;;;;14.35;6.18;;;;;;;20.64;44.53;100311.00;5114201;28;20082;-68
2023/05/02 01:12:18;;;;;;;11.48;6.25;;;;;;;20.63;44.91;100317.41;5114418;28;20130;-67
2023/05/02 01:14:54;;;;;;;12.40;5.93;;;;;;;20.63;44.60;100311.16;5114354;28;20490;-68
2023/05/02 01:17:27;;;;;;;13.10;5.85;;;;;;;20.61;44.52;100314.00;5114057;28;20507;-68
2023/05/02 01:20:00;;;;;;;11.65;5.68;;;;;;;20.61;44.40;100307.75;5114050;28;20066;-68
2023/05/02 01:22:29;;;;;;;12.68;5.63;;;;;;;20.59;44.32;100305.19;5113918;27;20136;-68
2023/05/02 01:25:04;;;;;;;10.13;5.40;;;;;;;20.58;44.58;100304.34;5114227;28;20051;-68
2023/05/02 01:27:40;;;;;;;10.55;5.32;;;;;;;20.57;44.40;100307.22;5114170;28;20102;-68
2023/05/02 01:30:13;;;;;;;13.65;5.97;;;;;;;20.56;43.99;100303.66;5114039;28;20051;-67
2023/05/02 01:32:43;;;;;;;;;;;;;;;20.55;44.19;100304.63;5114220;28;20180;-69
2023/05/02 01:35:14;;;;;;;11.05;6.00;;;;;;;20.54;44.31;100302.94;5113719;28;20382;-68
2023/05/02 01:37:45;;;;;;;10.52;5.60;;;;;;;20.53;44.44;100303.94;5113561;28;20097;-66
2023/05/02 01:40:17;;;;;;;10.52;5.35;;;;;;;20.52;43.97;100294.13;5113612;28;20054;-69
2023/05/02 01:42:47;;;;;;;11.48;6.13;;;;;;;20.51;44.17;100297.84;5113629;28;20039;-68
2023/05/02 01:45:18;;;;;;;10.00;5.30;;;;;;;20.50;43.87;100300.72;5115246;28;20051;-69
2023/05/02 01:47:48;;;;;;;9.30;5.10;;;;;;;20.49;44.12;100294.44;5113651;27;20062;-69
2023/05/02 01:50:23;;;;;;;10.07;5.78;;;;;;;20.48;44.23;100298.16;5113525;28;20602;-67
2023/05/02 01:52:54;;;;;;;9.55;5.13;;;;;;;20.48;43.78;100298.16;5113264;28;20108;-67
2023/05/02 01:55:24;;;;;;;11.65;5.80;;;;;;;20.46;43.79;100294.75;5113363;28;20047;-68
2023/05/02 01:57:56;;;;;;;10.80;5.70;;;;;;;20.47;44.16;100301.03;5113236;28;20048;-69
2023/05/02 02:00:26;;;;;;;9.43;5.28;;;;;;;20.45;43.84;100298.44;5113071;28;20611;-68
2023/05/02 02:02:57;;;;;;;11.13;5.65;;;;;;;20.43;44.31;100284.22;5113156;28;20092;-68
2023/05/02 02:05:27;;;;;;;10.52;5.07;;;;;;;20.42;43.93;100282.47;5113270;28;20046;-68
2023/05/02 02:07:55;;;;;;;11.65;5.45;;;;;;;20.41;44.30;100286.19;5113127;28;20135;-68
2023/05/02 02:10:26;;;;;;;9.52;5.07;;;;;;;20.40;44.29;100289.91;5113088;28;20135;-69
2023/05/02 02:13:00;;;;;;;9.15;4.57;;;;;;;20.40;43.90;100287.22;5112959;28;20105;-68
2023/05/02 02:15:35;;;;;;;9.68;4.95;;;;;;;20.39;44.28;100290.94;5113072;28;20112;-68
2023/05/02 02:18:10;;;;;;;11.05;5.88;;;;;;;20.37;44.03;100284.81;5113038;28;20043;-68
2023/05/02 02:20:42;;;;;;;9.80;5.53;;;;;;;20.36;43.96;100283.09;5112845;28;20048;-68
2023/05/02 02:23:12;;;;;;;9.48;5.32;;;;;;;20.36;44.24;100284.94;5112973;28;20047;-68
2023/05/02 02:25:42;;;;;;;10.18;5.47;;;;;;;20.35;43.94;100277.81;5112942;28;20046;-68
2023/05/02 02:28:11;;;;;;;8.95;4.72;;;;;;;20.34;44.33;100284.25;5112934;28;20048;-68
2023/05/02 02:30:41;;;;;;;10.02;4.85;;;;;;;20.32;44.04;100287.13;5112568;28;20040;-68
2023/05/02 02:33:09;;;;;;;9.55;4.70;;;;;;;20.32;43.92;100276.28;5112607;28;20100;-68
2023/05/02 02:35:42;;;;;;;9.35;4.85;;;;;;;20.32;43.98;100272.72;5112933;28;20052;-68
2023/05/02 02:38:19;;;;;;;9.68;5.18;;;;;;;20.30;44.04;100273.75;5112748;28;20039;-68
2023/05/02 02:40:53;;;;;;;9.02;4.68;;;;;;;20.29;44.05;100280.16;5112613;28;20078;-68
2023/05/02 02:43:33;;;;;;;10.00;5.13;;;;;;;20.29;44.36;100282.03;5112835;28;20510;-68
2023/05/02 02:46:17;;;;;;;10.68;4.85;;;;;;;20.27;44.24;100278.63;5112258;28;20544;-69
2023/05/02 02:48:55;;;;;;;8.40;4.43;;;;;;;20.26;44.15;100277.75;5112165;28;20051;-68
2023/05/02 02:51:31;;;;;;;8.18;4.55;;;;;;;20.25;44.46;100276.03;5112288;28;20135;-68
2023/05/02 02:54:06;;;;;;;10.68;4.65;;;;;;;20.24;43.93;100278.91;5112534;28;20047;-68
2023/05/02 02:57:01;;;;;;;10.40;4.63;;;;;;;20.24;44.44;100278.91;5112504;28;20052;-68
2023/05/02 02:59:33;;;;;;;8.52;4.20;;;;;;;20.22;44.24;100275.50;5112345;28;20062;-68
2023/05/02 03:02:08;;;;;;;8.60;4.40;;;;;;;20.21;44.28;100282.78;5112120;28;20047;-68
2023/05/02 03:04:38;;;;;;;11.23;5.00;;;;;;;20.21;44.45;100281.94;5112191;28;20043;-68
2023/05/02 03:07:07;;;;;;;8.30;4.60;;;;;;;20.20;44.18;100288.34;5112063;28;20142;-68
2023/05/02 03:09:41;;;;;;;9.20;4.75;;;;;;;20.19;44.08;100286.66;5112177;28;20488;-68
2023/05/02 03:12:09;;;;;;;9.40;4.80;;;;;;;20.18;44.46;100287.66;5111668;28;20054;-68
2023/05/02 03:14:38;;;;;;;8.00;4.60;;;;;;;20.16;44.43;100286.94;5114369;28;20039;-68
2023/05/02 03:17:08;;;;;;;10.27;4.47;;;;;;;20.16;44.38;100282.38;5112031;28;20044;-68
2023/05/02 03:19:36;;;;;;;8.57;4.40;;;;;;;20.16;44.77;100289.66;5112263;28;20055;-68
2023/05/02 03:22:05;;;;;;;8.07;4.30;;;;;;;20.14;44.59;100288.97;5112111;28;20475;-68
2023/05/02 03:24:33;;;;;;;10.32;5.47;;;;;;;20.13;44.36;100292.66;5112104;28;20058;-68
2023/05/02 03:27:01;;;;;;;8.98;4.55;;;;;;;20.11;44.40;100290.13;5111788;28;20048;-68
2023/05/02 03:29:30;;;;;;;12.38;6.03;;;;;;;20.10;44.33;100288.44;5111873;28;20051;-68
2023/05/02 03:31:58;;;;;;;11.80;6.18;;;;;;;20.10;44.68;100295.69;5111823;28;20444;-68
2023/05/02 03:34:27;;;;;;;10.80;5.82;;;;;;;20.09;44.81;100285.88;5111937;28;20047;-68
2023/05/02 03:36:55;;;;;;;9.65;5.13;;;;;;;20.08;44.58;100295.00;5111921;28;20044;-68
2023/05/02 03:39:24;;;;;;;10.18;5.07;;;;;;;20.06;44.62;100294.28;5111863;28;20040;-68
2023/05/02 03:41:52;;;;;;;9.85;4.97;;;;;;;20.05;44.43;100298.84;5111637;28;20608;-68
2023/05/02 03:44:20;;;;;;;10.02;4.93;;;;;;;20.05;44.65;100306.13;5111762;28;20046;-68
2023/05/02 03:46:48;;;;;;;9.13;5.07;;;;;;;20.05;44.81;100300.69;5111785;28;20097;-67
2023/05/02 03:49:18;;;;;;;9.98;4.97;;;;;;;20.02;44.64;100302.72;5111949;28;20079;-68
2023/05/02 03:51:48;;;;;;;9.88;4.80;;;;;;;20.02;44.67;100304.56;5111671;28;20048;-68
2023/05/02 03:54:16;;;;;;;8.35;4.60;;;;;;;20.01;44.42;100301.00;5111688;28;20039;-68
2023/05/02 03:56:46;;;;;;;8.70;4.47;;;;;;;20.00;44.34;100302.03;5111430;28;20138;-68
2023/05/02 03:59:15;;;;;;;7.68;4.00;;;;;;;19.99;44.44;100311.16;5111853;28;20044;-67
2023/05/02 04:01:43;;;;;;;8.23;4.50;;;;;;;19.98;44.76;100306.75;5111684;28;20097;-68
2023/05/02 04:04:11;;;;;;;9.10;4.75;;;;;;;19.97;44.50;100315.84;5111644;28;20048;-67
2023/05/02 04:06:40;;;;;;;8.45;4.30;;;;;;;19.96;44.64;100314.13;5111617;28;20048;-67
2023/05/02 04:09:09;;;;;;;7.18;4.05;;;;;;;19.96;44.90;100319.56;5111735;28;20048;-67
2023/05/02 04:11:37;;;;;;;8.95;4.65;;;;;;;19.96;44.50;100313.28;5111326;28;20480;-67
2023/05/02 04:14:05;;;;;;;7.20;3.70;;;;;;;19.95;44.73;100317.00;5111675;28;20047;-67
2023/05/02 04:16:33;;;;;;;7.95;4.03;;;;;;;19.93;44.71;100319.88;5111555;28;20052;-67
2023/05/02 04:19:02;;;;;;;7.45;3.80;;;;;;;19.92;44.44;100315.47;5111596;28;20048;-66
2023/05/02 04:21:30;;;;;;;7.97;4.03;;;;;;;19.92;44.57;100318.16;5111313;28;20051;-67
2023/05/02 04:23:59;;;;;;;8.13;4.07;;;;;;;19.92;44.78;100311.91;5111379;28;20067;-66
2023/05/02 04:26:28;;;;;;;7.55;4.25;;;;;;;19.91;44.46;100324.59;5115119;28;20054;-67
2023/05/02 04:28:56;;;;;;;8.27;3.97;;;;;;;19.90;44.95;100322.88;5114801;28;20047;-67
2023/05/02 04:31:24;;;;;;;7.22;3.72;;;;;;;19.91;44.87;100331.84;5115239;28;20135;-67
2023/05/02 04:33:53;;;;;;;8.07;3.95;;;;;;;19.90;44.59;100327.44;5114849;28;20048;-68
2023/05/02 04:36:21;;;;;;;9.60;4.20;;;;;;;19.89;44.70;100334.72;5114888;28;20050;-68
2023/05/02 04:38:52;;;;;;;8.13;4.10;;;;;;;19.89;44.37;100331.16;5114795;28;20485;-67
2023/05/02 04:41:20;;;;;;;7.78;4.10;;;;;;;19.88;44.85;100337.53;5114874;28;20050;-67
2023/05/02 04:43:50;;;;;;;7.88;3.70;;;;;;;19.87;44.85;100334.00;5114613;28;20081;-68
2023/05/02 04:46:18;;;;;;;7.15;3.72;;;;;;;19.88;44.58;100340.25;5114641;28;20052;-67
2023/05/02 04:48:46;;;;;;;8.63;4.22;;;;;;;19.86;44.86;100340.41;5114172;28;20142;-68
2023/05/02 04:51:15;;;;;;;6.88;3.70;;;;;;;19.85;44.71;100338.72;5114263;28;20058;-67
2023/05/02 04:53:44;;;;;;;8.50;3.70;;;;;;;19.85;44.47;100344.13;5114664;28;20047;-68
2023/05/02 04:56:13;;;;;;;6.55;3.55;;;;;;;19.85;44.34;100340.56;5114432;28;20067;-68
2023/05/02 04:58:41;;;;;;;7.25;3.90;;;;;;;19.84;44.31;100347.84;5114357;28;20069;-68
2023/05/02 05:01:10;;;;;;;8.18;3.70;;;;;;;19.84;44.53;100347.84;5113439;28;20052;-68
2023/05/02 05:03:38;;;;;;;6.78;3.58;;;;;;;19.84;44.50;100347.84;5093855;28;20048;-67
2023/05/02 05:06:07;;;;;;;7.18;3.83;;;;;;;19.84;44.83;100341.56;5093563;28;20373;-67
2023/05/02 05:08:35;;;;;;;7.35;3.58;;;;;;;19.83;44.49;100351.53;5093803;28;20518;-69
2023/05/02 05:11:19;;;;;;;8.02;3.90;;;;;;;19.83;44.63;100348.84;5073368;28;20045;-68
2023/05/02 05:13:47;;;;;;;6.55;3.45;;;;;;;19.82;44.51;100341.72;5072752;28;20114;-67
2023/05/02 05:16:16;;;;;;;5.43;3.28;;;;;;;19.83;44.56;100350.69;5107526;28;20549;-67
2023/05/02 05:18:46;;;;;;;6.22;3.50;;;;;;;19.82;44.57;100347.13;5113973;28;20450;-68
2023/05/02 05:21:14;;;;;;;7.85;3.80;;;;;;;19.82;44.20;100349.84;5113489;28;20100;-69
2023/05/02 05:23:44;;;;;;;6.13;3.35;;;;;;;19.81;44.55;100347.28;5113689;28;20079;-68
2023/05/02 05:26:15;;;;;;;6.95;3.50;;;;;;;19.81;44.38;100361.66;5113958;28;20083;-68
2023/05/02 05:28:44;;;;;;;6.53;3.75;;;;;;;19.82;44.55;100359.81;5113729;28;20128;-67
2023/05/02 05:31:14;;;;;;;6.90;3.67;;;;;;;19.82;44.69;100359.81;5113571;28;20050;-67
2023/05/02 05:33:45;;;;;;;6.40;3.70;;;;;;;19.83;44.44;100361.53;5113627;28;20139;-66
2023/05/02 05:36:14;;;;;;;7.40;3.72;;;;;;;19.81;44.62;100358.97;5112937;28;20107;-66
2023/05/02 05:38:43;;;;;;;6.80;3.53;;;;;;;19.82;44.50;100360.66;5113256;28;20488;-68
2023/05/02 05:41:11;;;;;;;7.95;3.55;;;;;;;19.83;45.27;100366.94;5113218;28;20515;-67
2023/05/02 05:43:39;;;;;;;7.57;3.42;;;;;;;19.82;44.96;100368.78;5113090;28;20051;-67
2023/05/02 05:46:07;;;;;;;8.40;3.65;;;;;;;19.82;45.43;100371.50;5112217;28;20048;-67
2023/05/02 05:48:36;;;;;;;8.73;3.88;;;;;;;19.83;45.52;100370.50;5112850;28;20051;-66
2023/05/02 05:51:06;;;;;;;9.02;3.83;;;;;;;19.84;45.57;100374.03;5113248;28;20536;-67
2023/05/02 05:53:35;;;;;;;8.88;3.70;;;;;;;19.84;46.03;100371.34;5113274;27;20044;-68
2023/05/02 05:56:09;;;;;;;5.97;3.33;;;;;;;19.84;45.66;100379.47;5113525;28;20056;-66
2023/05/02 05:58:37;;;;;;;7.97;3.75;;;;;;;19.83;45.56;100378.59;5113362;28;20136;-68
2023/05/02 06:01:06;;;;;;;6.72;3.60;;;;;;;19.84;45.71;100380.31;5113245;28;20048;-65
2023/05/02 06:03:34;;;;;;;6.88;3.28;;;;;;;19.84;45.56;100380.31;5110910;28;20077;-67
2023/05/02 06:06:02;;;;;;;9.00;3.85;;;;;;;19.85;45.81;100384.72;5092617;28;20093;-67
2023/05/02 06:08:32;;;;;;;7.82;4.13;;;;;;;19.85;46.09;100382.00;5092359;28;20133;-67
2023/05/02 06:11:00;;;;;;;8.88;3.47;;;;;;;19.86;46.13;100381.00;5092773;28;20089;-67
2023/05/02 06:13:28;;;;;;;8.05;3.78;;;;;;;19.86;46.31;100383.72;5092639;28;20044;-66
2023/05/02 06:16:00;;;;;;;8.23;3.90;;;;;;;19.86;46.25;100383.72;5092726;28;20054;-66
2023/05/02 06:18:28;;;;;;;10.75;4.53;;;;;;;19.87;46.56;100385.41;5092393;28;20051;-67
2023/05/02 06:20:58;;;;;;;13.02;5.70;;;;;;;19.87;46.23;100380.00;5092205;28;20048;-66
2023/05/02 06:23:26;;;;;;;17.60;8.98;;;;;;;19.88;46.80;100384.44;5091983;28;20070;-67
2023/05/02 06:25:59;;;;;;;18.42;8.75;;;;;;;19.89;47.15;100386.16;5092324;28;20048;-67
2023/05/02 06:28:27;;;;;;;20.30;9.98;;;;;;;19.90;47.54;100387.00;5092083;28;20044;-66
2023/05/02 06:31:00;;;;;;;23.75;12.02;;;;;;;19.90;47.52;100381.59;5092295;28;20484;-66
2023/05/02 06:33:28;;;;;;;21.73;10.73;;;;;;;19.91;47.48;100386.00;5092035;28;20127;-66
2023/05/02 06:35:57;;;;;;;23.20;10.10;;;;;;;19.92;47.86;100385.84;5092123;28;20111;-67
2023/05/02 06:38:28;;;;;;;24.20;11.60;;;;;;;19.92;47.98;100383.13;5092240;28;20062;-67
2023/05/02 06:41:00;;;;;;;27.90;11.98;;;;;;;19.92;48.49;100385.84;5092112;28;20127;-67
2023/05/02 06:43:28;;;;;;;23.67;11.63;;;;;;;19.93;48.18;100383.97;5091692;28;20534;-66
2023/05/02 06:45:57;;;;;;;21.02;10.20;;;;;;;19.95;48.49;100390.09;5091911;28;20044;-66
2023/05/02 06:48:25;;;;;;;24.88;11.93;;;;;;;19.95;48.40;100388.25;5090971;28;20500;-67
2023/05/02 06:50:53;;;;;;;23.70;11.15;;;;;;;19.95;48.71;100396.34;5092053;28;20097;-66
2023/05/02 06:53:22;;;;;;;24.02;11.15;;;;;;;19.96;48.71;100389.09;5092412;28;20123;-66
2023/05/02 06:55:50;;;;;;;24.60;11.00;;;;;;;19.96;48.76;100384.53;5091851;28;20066;-66
2023/05/02 06:58:19;;;;;;;22.70;11.15;;;;;;;19.98;48.89;100392.53;5091934;28;20047;-66
2023/05/02 07:00:49;;;;;;;25.73;11.18;;;;;;;19.99;48.69;100394.22;5091780;28;20052;-64
2023/05/02 07:03:17;;;;;;;21.50;10.95;;;;;;;19.99;48.86;100395.06;5091786;28;20048;-66
2023/05/02 07:05:45;;;;;;;24.10;10.77;;;;;;;20.00;49.10;100383.25;5091778;28;20044;-65
2023/05/02 07:08:13;;;;;;;25.50;10.52;;;;;;;20.01;49.06;100381.38;5091837;28;20070;-66
2023/05/02 07:10:41;;;;;;;19.90;9.77;;;;;;;20.02;49.21;100386.66;5091650;28;20048;-66
2023/05/02 07:13:10;;;;;;;21.45;10.20;;;;;;;20.02;49.08;100383.94;5092397;28;20083;-67
2023/05/02 07:15:39;;;;;;;20.42;10.50;;;;;;;20.04;49.16;100388.34;5092031;28;20056;-66
2023/05/02 07:18:07;;;;;;;23.95;10.23;;;;;;;20.05;48.85;100381.94;5091981;28;20230;-65
2023/05/02 07:20:37;;;;;;;20.73;9.73;;;;;;;20.05;48.75;100385.47;5091815;28;20058;-65
2023/05/02 07:23:05;;;;;;;20.83;9.80;;;;;;;20.08;49.10;100381.66;5091549;28;20048;-65
2023/05/02 07:25:33;;;;;;;21.42;9.60;;;;;;;20.08;49.14;100381.66;5091422;28;20131;-66
2023/05/02 07:28:02;;;;;;;20.00;9.48;;;;;;;20.09;48.45;100381.50;5091472;28;20123;-65
2023/05/02 07:30:30;;;;;;;15.95;8.57;;;;;;;20.10;48.28;100380.50;5091446;28;20044;-66
2023/05/02 07:32:59;;;;;;;19.27;8.93;;;;;;;20.12;48.71;100388.47;5091670;28;20048;-65
2023/05/02 07:35:28;;;;;;;19.40;9.57;;;;;;;20.12;48.40;100383.03;5091644;28;20040;-66
2023/05/02 07:37:56;;;;;;;18.40;9.23;;;;;;;20.14;48.33;100389.16;5091510;28;20052;-66
2023/05/02 07:40:25;;;;;;;21.27;9.05;;;;;;;20.15;47.96;100385.44;5091364;28;20047;-66
2023/05/02 07:42:53;;;;;;;20.48;9.23;;;;;;;20.16;47.95;100390.69;5091216;28;20044;-65
2023/05/02 07:45:21;;;;;;;15.90;8.80;;;;;;;20.17;47.95;100403.25;5091584;28;20408;-65
2023/05/02 07:47:49;;;;;;;19.20;9.15;;;;;;;20.18;48.22;100398.69;5091178;28;20052;-65
2023/05/02 07:50:19;;;;;;;17.05;8.55;;;;;;;20.20;48.26;100399.41;5091155;28;20051;-66
2023/05/02 07:52:47;;;;;;;17.50;8.52;;;;;;;20.20;48.18;100402.09;5091141;28;20054;-66
2023/05/02 07:55:16;;;;;;;16.83;7.97;;;;;;;20.22;47.88;100400.09;5091062;28;20048;-66
2023/05/02 07:57:44;;;;;;;16.27;7.82;;;;;;;20.22;47.64;100395.53;5091453;28;20090;-66
2023/05/02 08:00:13;;;;;;;14.05;7.57;;;;;;;20.24;47.69;100398.06;5094630;28;20094;-66
2023/05/02 08:02:42;;;;;;;13.32;7.38;;;;;;;20.25;47.92;100397.91;5095194;28;20048;-66
2023/05/02 08:05:16;;;;;;;14.30;7.50;;;;;;;20.26;47.96;100393.34;5094980;28;20097;-66
2023/05/02 08:07:46;;;;;;;16.52;7.45;;;;;;;20.27;47.89;100397.78;5095040;28;20123;-65
2023/05/02 08:10:15;;;;;;;15.15;7.93;;;;;;;20.29;47.86;100390.38;5095308;28;20052;-65
2023/05/02 08:12:43;;;;;;;16.23;7.75;;;;;;;20.30;48.18;100392.91;5095289;28;20101;-65
2023/05/02 08:15:13;;;;;;;15.57;7.35;;;;;;;20.31;47.86;100393.78;5094936;28;20079;-66
2023/05/02 08:17:41;;;;;;;17.42;7.28;;;;;;;20.32;48.24;100398.19;5094996;28;20045;-66
2023/05/02 08:20:10;;;;;;;15.20;7.20;;;;;;;20.34;48.08;100398.88;5094839;28;20040;-66
2023/05/02 08:22:38;;;;;;;15.13;7.72;;;;;;;20.35;48.29;100389.75;5094668;28;20044;-66
2023/05/02 08:25:08;;;;;;;16.17;7.63;;;;;;;20.37;47.98;100389.63;5094866;28;20082;-66
2023/05/02 08:27:36;;;;;;;14.55;7.35;;;;;;;20.37;48.19;100390.47;5094717;28;20395;-66
2023/05/02 08:30:06;;;;;;;14.13;7.07;;;;;;;20.39;48.03;100391.16;5094737;28;20048;-65
2023/05/02 08:32:36;;;;;;;14.27;7.10;;;;;;;20.40;47.90;100395.56;5094429;28;20072;-65
2023/05/02 08:35:06;;;;;;;14.95;7.63;;;;;;;20.42;48.42;100393.56;5094357;28;20441;-65
2023/05/02 08:37:35;;;;;;;14.13;6.97;;;;;;;20.43;47.93;100392.56;5094940;28;20101;-66
2023/05/02 08:40:03;;;;;;;13.55;6.93;;;;;;;20.45;48.03;100390.56;5095400;28;20163;-65
2023/05/02 08:42:34;;;;;;;14.55;7.50;;;;;;;20.48;48.07;100378.59;5094032;28;20044;-66
2023/05/02 08:45:02;;;;;;;15.88;7.63;;;;;;;20.47;48.39;100388.56;5094179;28;20048;-66
2023/05/02 08:47:32;;;;;;;14.77;7.22;;;;;;;20.49;48.44;100381.13;5093747;28;20051;-65
2023/05/02 08:50:01;;;;;;;16.23;7.57;;;;;;;20.50;48.94;100374.72;5093304;28;20052;-65
2023/05/02 08:52:32;;;;;;;14.55;6.47;;;;;;;20.52;48.82;100378.13;5093202;28;20139;-66
2023/05/02 08:55:01;;;;;;;15.55;7.93;;;;;;;20.54;48.80;100381.50;5093296;28;20074;-66
2023/05/02 08:57:30;;;;;;;13.35;7.40;;;;;;;20.56;48.76;100390.38;5093053;28;20060;-67
2023/05/02 09:00:00;;;;;;;14.52;7.28;;;;;;;20.57;48.86;100381.22;5093003;28;20413;-66
2023/05/02 09:02:47;;;;;;;15.65;6.75;;;;;;;20.59;48.87;100378.38;5093044;28;20052;-66
2023/05/02 09:05:20;;;;;;;13.25;7.18;;;;;;;20.61;48.73;100372.78;5093097;28;20056;-66
2023/05/02 09:07:49;;;;;;;13.13;6.80;;;;;;;20.63;49.02;100370.78;5093960;28;20052;-66
2023/05/02 09:10:17;;;;;;;13.95;7.10;;;;;;;20.65;49.13;100368.75;5093026;28;20098;-65
2023/05/02 09:12:45;;;;;;;11.73;7.00;;;;;;;20.66;48.76;100365.06;5093747;28;20052;-66
2023/05/02 09:15:17;;;;;;;13.65;7.18;;;;;;;20.68;48.84;100369.31;5093667;28;20048;-66
2023/05/02 09:17:48;;;;;;;12.55;7.03;;;;;;;20.69;48.70;100364.75;5093674;28;20048;-66
2023/05/02 09:20:17;;;;;;;13.48;7.32;;;;;;;20.71;49.14;100369.00;5093463;28;20499;-65
2023/05/02 09:22:50;;;;;;;11.82;6.80;;;;;;;20.73;48.97;100366.13;5093531;28;20040;-66
2023/05/02 09:25:20;;;;;;;12.77;6.80;;;;;;;20.74;49.09;100365.13;5093352;28;20087;-67
2023/05/02 09:27:53;;;;;;;14.13;6.53;;;;;;;20.77;49.19;100364.81;5093747;28;20040;-66
2023/05/02 09:30:24;;;;;;;10.48;6.40;;;;;;;20.79;48.91;100368.22;5093450;28;20156;-66
2023/05/02 09:32:54;;;;;;;13.52;7.45;;;;;;;20.81;48.93;100379.75;5093384;28;20044;-66
2023/05/02 09:35:26;;;;;;;11.25;6.80;;;;;;;20.82;48.83;100371.47;5093279;28;20052;-65
2023/05/02 09:37:56;;;;;;;13.15;6.88;;;;;;;20.83;48.90;100367.75;5093140;28;20047;-65
2023/05/02 09:40:26;;;;;;;13.77;6.53;;;;;;;20.85;49.11;100365.75;5093232;28;20043;-65
2023/05/02 09:42:56;;;;;;;14.85;6.60;;;;;;;20.88;49.33;100369.16;5093342;28;20090;-65
2023/05/02 09:45:26;;;;;;;12.32;6.28;;;;;;;20.90;49.08;100367.13;5093043;28;20058;-66
2023/05/02 09:47:54;;;;;;;11.85;6.32;;;;;;;20.91;48.95;100366.97;5092996;28;20040;-66
2023/05/02 09:50:33;;;;;;;13.45;6.55;;;;;;;20.94;49.14;100363.97;5092691;28;20473;-66
2023/05/02 09:53:03;;;;;;;12.65;6.63;;;;;;;20.96;49.13;100358.38;5092698;28;20048;-66
2023/05/02 09:55:32;;;;;;;13.65;6.85;;;;;;;20.97;49.23;100363.66;5092922;28;20047;-66
2023/05/02 09:58:00;;;;;;;12.02;6.05;;;;;;;21.00;49.38;100363.31;5092877;28;20055;-66
2023/05/02 10:00:41;;;;;;;11.02;5.95;;;;;;;21.01;49.38;100354.19;5092680;28;20048;-66
2023/05/02 10:03:09;;;;;;;11.38;6.57;;;;;;;21.04;49.02;100356.59;5093939;28;20040;-65
2023/05/02 10:05:39;;;;;;;11.98;6.18;;;;;;;21.05;49.09;100343.88;5092653;28;20233;-65
2023/05/02 10:08:09;;;;;;;12.13;5.88;;;;;;;21.07;49.31;100348.13;5092557;28;20398;-66
2023/05/02 10:10:39;;;;;;;11.77;5.85;;;;;;;21.10;49.17;100336.97;5092634;28;20075;-66
2023/05/02 10:13:09;;;;;;;10.63;5.93;;;;;;;21.13;49.24;100341.22;5092546;28;20067;-65
2023/05/02 10:15:44;;;;;;;10.70;5.88;;;;;;;21.15;48.94;100348.22;5092433;28;20052;-66
2023/05/02 10:18:21;;;;;;;11.60;6.10;;;;;;;21.19;48.94;100346.03;5092489;28;20098;-65
2023/05/02 10:20:56;;;;;;;11.73;5.88;;;;;;;21.21;49.11;100332.28;5092563;28;20201;-66
2023/05/02 10:23:29;;;;;;;10.82;6.13;;;;;;;21.24;49.04;100342.84;5092028;28;20489;-66
2023/05/02 10:25:59;;;;;;;11.80;5.85;;;;;;;21.27;49.02;100342.56;5092198;28;20455;-65
2023/05/02 10:28:28;;;;;;;10.98;6.03;;;;;;;21.30;48.95;100344.94;5092475;28;20097;-66
2023/05/02 10:31:01;;;;;;;11.45;5.55;;;;;;;21.32;48.77;100341.03;5092387;28;20044;-65
2023/05/02 10:33:31;;;;;;;10.55;5.75;;;;;;;21.36;49.29;100336.16;5092328;28;20126;-65
2023/05/02 10:35:59;;;;;;;9.20;5.25;;;;;;;21.39;48.76;100342.13;5092307;28;20052;-69
2023/05/02 10:38:27;;;;;;;9.40;5.53;;;;;;;21.43;49.12;100343.53;5092118;28;20176;-66
2023/05/02 10:41:01;;;;;;;9.35;5.40;;;;;;;21.47;48.96;100349.47;5092099;28;20082;-67
2023/05/02 10:43:33;;;;;;;9.95;5.55;;;;;;;21.50;48.78;100343.72;5092306;28;20196;-67
2023/05/02 10:46:03;;;;;;;10.15;5.43;;;;;;;21.54;48.86;100353.25;5091975;28;20101;-65
2023/05/02 10:48:32;;;;;;;11.43;5.72;;;;;;;21.58;48.97;100340.19;5091629;28;20047;-67
2023/05/02 10:51:01;;;;;;;10.13;5.20;;;;;;;21.61;48.93;100331.72;5091488;28;20040;-66
2023/05/02 10:53:32;;;;;;;9.73;5.65;;;;;;;21.64;48.84;100326.84;5091512;28;20051;-65
2023/05/02 10:56:12;;;;;;;9.48;5.57;;;;;;;21.68;48.76;100332.78;5091741;28;20468;-66
2023/05/02 10:58:41;;;;;;;8.48;5.38;;;;;;;21.71;48.93;100330.63;5091733;28;20412;-67
2023/05/02 11:01:38;;;;;;;10.00;5.55;;;;;;;21.74;48.65;100339.44;5091475;28;20052;-67
2023/05/02 11:04:08;;;;;;;9.15;4.75;;;;;;;21.78;48.67;100330.81;5078767;28;20443;-66
2023/05/02 11:06:57;;;;;;;8.50;5.18;;;;;;;21.82;48.53;100325.91;5091601;28;20055;-67
2023/05/02 11:09:33;;;;;;;10.30;4.80;;;;;;;21.85;48.69;100320.16;5091600;28;20507;-67
2023/05/02 11:12:04;;;;;;;10.32;5.03;;;;;;;21.88;48.52;100322.53;5091649;28;20484;-67
2023/05/02 11:14:50;;;;;;;8.65;4.78;;;;;;;21.92;48.42;100315.78;5091923;28;20139;-67
2023/05/02 11:17:20;;;;;;;7.40;4.53;;;;;;;21.93;48.29;100317.47;5091286;28;20079;-66
2023/05/02 11:20:21;;;;;;;8.90;5.50;;;;;;;21.95;48.37;100315.44;5091757;28;20048;-66
2023/05/02 11:22:50;;;;;;;9.07;4.93;;;;;;;21.97;48.14;100307.97;5091725;28;20050;-65
2023/05/02 11:25:35;;;;;;;9.40;5.22;;;;;;;22.00;48.24;100304.91;5091734;28;20127;-67
2023/05/02 11:28:07;;;;;;;7.55;4.68;;;;;;;22.02;48.32;100311.06;5091643;28;20048;-66
2023/05/02 11:30:40;;;;;;;8.63;4.75;;;;;;;22.05;48.30;100301.72;5091474;28;20127;-65
2023/05/02 11:33:18;;;;;;;8.60;5.15;;;;;;;22.09;48.19;100306.69;5091776;28;20079;-66
2023/05/02 11:35:48;;;;;;;8.15;4.72;;;;;;;22.11;48.09;100299.25;5095829;28;20412;-67